sensor_id;sensor_type;location;lat;lon;timestamp;pressure;altitude;pressure_sealevel;temperature;humidity
56176;BME280;63065;51.082;17.016;2023-03-08T00:00:17;98498.99;;;6.64;44.79
56176;BME280;63065;51.082;17.016;2023-03-08T00:02:41;98497.50;;;6.55;44.80
56176;BME280;63065;51.082;17.016;2023-03-08T00:05:07;98504.20;;;6.45;44.89
56176;BME280;63065;51.082;17.016;2023-03-08T00:07:32;98504.51;;;6.41;44.57
56176;BME280;63065;51.082;17.016;2023-03-08T00:09:57;98507.42;;;5.97;45.37
56176;BME280;63065;51.082;17.016;2023-03-08T00:12:23;98512.25;;;6.15;45.24
56176;BME280;63065;51.082;17.016;2023-03-08T00:14:48;98510.78;;;6.04;45.18
56176;BME280;63065;51.082;17.016;2023-03-08T00:17:14;98516.84;;;5.99;45.47
56176;BME280;63065;51.082;17.016;2023-03-08T00:19:39;98518.19;;;5.80;46.12
56176;BME280;63065;51.082;17.016;2023-03-08T00:22:05;98520.98;;;6.22;46.06
56176;BME280;63065;51.082;17.016;2023-03-08T00:24:30;98520.44;;;5.90;45.67
56176;BME280;63065;51.082;17.016;2023-03-08T00:26:56;98519.30;;;5.95;44.74
56176;BME280;63065;51.082;17.016;2023-03-08T00:29:21;98522.00;;;5.37;46.52
56176;BME280;63065;51.082;17.016;2023-03-08T00:31:47;98522.96;;;5.57;46.25
56176;BME280;63065;51.082;17.016;2023-03-08T00:34:13;98524.08;;;5.93;45.78
56176;BME280;63065;51.082;17.016;2023-03-08T00:36:39;98523.07;;;6.01;44.91
56176;BME280;63065;51.082;17.016;2023-03-08T00:39:04;98520.77;;;5.81;45.86
56176;BME280;63065;51.082;17.016;2023-03-08T00:41:29;98520.13;;;5.41;45.54
56176;BME280;63065;51.082;17.016;2023-03-08T00:43:55;98525.67;;;5.62;45.84
56176;BME280;63065;51.082;17.016;2023-03-08T00:46:20;98529.70;;;5.64;46.57
56176;BME280;63065;51.082;17.016;2023-03-08T00:48:45;98531.47;;;5.50;46.13
56176;BME280;63065;51.082;17.016;2023-03-08T00:51:13;98528.35;;;5.73;45.70
56176;BME280;63065;51.082;17.016;2023-03-08T00:53:36;98527.43;;;5.51;46.46
56176;BME280;63065;51.082;17.016;2023-03-08T00:56:02;98528.98;;;5.30;46.41
56176;BME280;63065;51.082;17.016;2023-03-08T00:58:29;98532.47;;;5.64;46.91
56176;BME280;63065;51.082;17.016;2023-03-08T01:00:53;98544.70;;;5.46;45.85
56176;BME280;63065;51.082;17.016;2023-03-08T01:03:19;98546.27;;;5.51;46.98
56176;BME280;63065;51.082;17.016;2023-03-08T01:05:46;98545.40;;;5.00;46.39
56176;BME280;63065;51.082;17.016;2023-03-08T01:08:10;98550.61;;;4.81;47.05
56176;BME280;63065;51.082;17.016;2023-03-08T01:10:35;98557.71;;;5.40;47.66
56176;BME280;63065;51.082;17.016;2023-03-08T01:13:01;98558.20;;;5.19;48.23
56176;BME280;63065;51.082;17.016;2023-03-08T01:15:26;98568.15;;;4.83;47.23
56176;BME280;63065;51.082;17.016;2023-03-08T01:17:51;98574.69;;;4.37;48.14
56176;BME280;63065;51.082;17.016;2023-03-08T01:20:17;98574.31;;;3.72;49.99
56176;BME280;63065;51.082;17.016;2023-03-08T01:22:42;98571.87;;;4.23;48.91
56176;BME280;63065;51.082;17.016;2023-03-08T01:25:08;98575.42;;;4.87;47.86
56176;BME280;63065;51.082;17.016;2023-03-08T01:27:33;98573.14;;;4.96;47.67
56176;BME280;63065;51.082;17.016;2023-03-08T01:29:59;98574.35;;;4.71;47.62
56176;BME280;63065;51.082;17.016;2023-03-08T01:32:24;98566.41;;;4.90;48.24
56176;BME280;63065;51.082;17.016;2023-03-08T01:34:50;98560.42;;;4.93;47.75
56176;BME280;63065;51.082;17.016;2023-03-08T01:37:15;98562.38;;;4.98;47.76
56176;BME280;63065;51.082;17.016;2023-03-08T01:39:41;98568.19;;;5.11;48.08
56176;BME280;63065;51.082;17.016;2023-03-08T01:42:07;98572.52;;;5.29;46.58
56176;BME280;63065;51.082;17.016;2023-03-08T01:46:57;98578.01;;;5.38;46.20
56176;BME280;63065;51.082;17.016;2023-03-08T01:49:26;98576.38;;;5.13;46.31
56176;BME280;63065;51.082;17.016;2023-03-08T01:51:52;98581.29;;;5.15;47.28
56176;BME280;63065;51.082;17.016;2023-03-08T01:54:15;98584.89;;;5.37;47.16
56176;BME280;63065;51.082;17.016;2023-03-08T01:56:39;98588.42;;;5.33;46.22
56176;BME280;63065;51.082;17.016;2023-03-08T01:59:04;98596.25;;;5.43;46.78
56176;BME280;63065;51.082;17.016;2023-03-08T02:01:29;98607.19;;;4.70;46.88
56176;BME280;63065;51.082;17.016;2023-03-08T02:03:55;98609.94;;;5.21;46.58
56176;BME280;63065;51.082;17.016;2023-03-08T02:06:20;98613.85;;;5.08;47.59
56176;BME280;63065;51.082;17.016;2023-03-08T02:08:45;98614.53;;;4.80;46.87
56176;BME280;63065;51.082;17.016;2023-03-08T02:11:12;98613.64;;;4.79;46.70
56176;BME280;63065;51.082;17.016;2023-03-08T02:13:36;98603.64;;;4.32;47.80
56176;BME280;63065;51.082;17.016;2023-03-08T02:16:02;98611.75;;;4.57;47.36
56176;BME280;63065;51.082;17.016;2023-03-08T02:18:26;98615.67;;;4.71;47.98
56176;BME280;63065;51.082;17.016;2023-03-08T02:20:52;98615.05;;;4.74;47.37
56176;BME280;63065;51.082;17.016;2023-03-08T02:23:18;98612.88;;;4.50;47.02
56176;BME280;63065;51.082;17.016;2023-03-08T02:25:49;98613.57;;;4.26;46.84
56176;BME280;63065;51.082;17.016;2023-03-08T02:28:08;98612.96;;;4.57;46.94
56176;BME280;63065;51.082;17.016;2023-03-08T02:30:36;98614.57;;;4.69;46.92
56176;BME280;63065;51.082;17.016;2023-03-08T02:32:58;98619.08;;;4.50;47.85
56176;BME280;63065;51.082;17.016;2023-03-08T02:35:23;98618.54;;;4.02;47.31
56176;BME280;63065;51.082;17.016;2023-03-08T02:37:48;98622.41;;;4.52;47.69
56176;BME280;63065;51.082;17.016;2023-03-08T02:40:14;98631.47;;;4.44;47.27
56176;BME280;63065;51.082;17.016;2023-03-08T02:42:40;98634.18;;;4.70;46.70
56176;BME280;63065;51.082;17.016;2023-03-08T02:45:07;98639.26;;;4.87;46.80
56176;BME280;63065;51.082;17.016;2023-03-08T02:47:31;98646.58;;;4.87;46.09
56176;BME280;63065;51.082;17.016;2023-03-08T02:49:56;98640.86;;;4.86;46.56
56176;BME280;63065;51.082;17.016;2023-03-08T02:52:21;98639.77;;;4.83;47.34
56176;BME280;63065;51.082;17.016;2023-03-08T02:54:46;98636.20;;;4.71;46.60
56176;BME280;63065;51.082;17.016;2023-03-08T02:57:11;98644.84;;;5.15;46.54
56176;BME280;63065;51.082;17.016;2023-03-08T02:59:37;98655.67;;;4.41;47.41
56176;BME280;63065;51.082;17.016;2023-03-08T03:02:02;98654.59;;;4.70;47.29
56176;BME280;63065;51.082;17.016;2023-03-08T03:04:28;98658.60;;;4.49;47.36
56176;BME280;63065;51.082;17.016;2023-03-08T03:06:52;98655.76;;;4.63;47.06
56176;BME280;63065;51.082;17.016;2023-03-08T03:09:17;98655.90;;;4.85;46.45
56176;BME280;63065;51.082;17.016;2023-03-08T03:11:42;98654.77;;;4.83;46.19
56176;BME280;63065;51.082;17.016;2023-03-08T03:14:08;98650.87;;;5.15;45.66
56176;BME280;63065;51.082;17.016;2023-03-08T03:16:33;98656.72;;;4.72;46.84
56176;BME280;63065;51.082;17.016;2023-03-08T03:18:58;98661.30;;;4.73;46.30
56176;BME280;63065;51.082;17.016;2023-03-08T03:21:24;98666.96;;;4.97;45.57
56176;BME280;63065;51.082;17.016;2023-03-08T03:23:48;98668.48;;;4.51;46.98
56176;BME280;63065;51.082;17.016;2023-03-08T03:26:14;98671.70;;;5.00;46.65
56176;BME280;63065;51.082;17.016;2023-03-08T03:28:39;98673.67;;;5.19;45.66
56176;BME280;63065;51.082;17.016;2023-03-08T03:31:06;98674.65;;;5.23;45.48
56176;BME280;63065;51.082;17.016;2023-03-08T03:33:29;98684.48;;;5.39;45.54
56176;BME280;63065;51.082;17.016;2023-03-08T03:35:54;98685.73;;;4.89;45.87
56176;BME280;63065;51.082;17.016;2023-03-08T03:38:20;98685.97;;;5.00;45.78
56176;BME280;63065;51.082;17.016;2023-03-08T03:40:45;98693.11;;;5.06;46.63
56176;BME280;63065;51.082;17.016;2023-03-08T03:43:10;98699.90;;;4.92;46.14
56176;BME280;63065;51.082;17.016;2023-03-08T03:45:36;98703.22;;;5.05;45.46
56176;BME280;63065;51.082;17.016;2023-03-08T03:48:01;98704.44;;;5.17;45.87
56176;BME280;63065;51.082;17.016;2023-03-08T03:50:26;98698.67;;;5.15;46.54
56176;BME280;63065;51.082;17.016;2023-03-08T03:52:51;98696.19;;;5.02;46.01
56176;BME280;63065;51.082;17.016;2023-03-08T03:55:16;98703.55;;;5.30;45.74
56176;BME280;63065;51.082;17.016;2023-03-08T03:57:41;98705.83;;;5.16;45.72
56176;BME280;63065;51.082;17.016;2023-03-08T04:00:09;98712.62;;;5.56;45.51
56176;BME280;63065;51.082;17.016;2023-03-08T04:02:32;98707.01;;;5.67;45.36
56176;BME280;63065;51.082;17.016;2023-03-08T04:04:57;98712.13;;;5.43;45.37
56176;BME280;63065;51.082;17.016;2023-03-08T04:07:22;98714.04;;;5.61;44.98
56176;BME280;63065;51.082;17.016;2023-03-08T04:09:47;98721.93;;;5.32;45.44
56176;BME280;63065;51.082;17.016;2023-03-08T04:12:12;98724.84;;;5.58;45.14
56176;BME280;63065;51.082;17.016;2023-03-08T04:14:37;98728.29;;;5.74;45.14
56176;BME280;63065;51.082;17.016;2023-03-08T04:17:03;98731.18;;;5.29;44.80
56176;BME280;63065;51.082;17.016;2023-03-08T04:19:28;98732.45;;;5.57;45.31
56176;BME280;63065;51.082;17.016;2023-03-08T04:21:53;98729.80;;;5.29;44.39
56176;BME280;63065;51.082;17.016;2023-03-08T04:24:18;98726.47;;;5.51;44.98
56176;BME280;63065;51.082;17.016;2023-03-08T04:26:44;98724.73;;;5.23;45.25
56176;BME280;63065;51.082;17.016;2023-03-08T04:29:09;98731.61;;;4.99;45.26
56176;BME280;63065;51.082;17.016;2023-03-08T04:31:34;98718.44;;;5.19;45.62
56176;BME280;63065;51.082;17.016;2023-03-08T04:34:00;98709.77;;;5.29;45.39
56176;BME280;63065;51.082;17.016;2023-03-08T04:36:25;98717.78;;;5.37;45.47
56176;BME280;63065;51.082;17.016;2023-03-08T04:38:51;98727.27;;;5.25;45.52
56176;BME280;63065;51.082;17.016;2023-03-08T04:41:16;98727.73;;;5.29;45.11
56176;BME280;63065;51.082;17.016;2023-03-08T04:43:45;98728.80;;;5.33;45.53
56176;BME280;63065;51.082;17.016;2023-03-08T04:46:07;98730.25;;;5.10;45.83
56176;BME280;63065;51.082;17.016;2023-03-08T04:48:31;98726.36;;;5.32;45.85
56176;BME280;63065;51.082;17.016;2023-03-08T04:50:59;98729.80;;;5.39;45.02
56176;BME280;63065;51.082;17.016;2023-03-08T04:53:22;98732.35;;;5.00;45.18
56176;BME280;63065;51.082;17.016;2023-03-08T04:55:47;98738.49;;;5.36;45.50
56176;BME280;63065;51.082;17.016;2023-03-08T04:58:12;98744.88;;;5.66;45.57
56176;BME280;63065;51.082;17.016;2023-03-08T05:00:38;98745.94;;;5.46;44.89
56176;BME280;63065;51.082;17.016;2023-03-08T05:03:03;98743.13;;;5.75;45.26
56176;BME280;63065;51.082;17.016;2023-03-08T05:05:28;98742.22;;;5.81;45.20
56176;BME280;63065;51.082;17.016;2023-03-08T05:07:53;98741.31;;;5.46;44.57
56176;BME280;63065;51.082;17.016;2023-03-08T05:10:18;98742.15;;;5.40;44.80
56176;BME280;63065;51.082;17.016;2023-03-08T05:12:44;98739.83;;;5.36;45.34
56176;BME280;63065;51.082;17.016;2023-03-08T05:15:10;98739.12;;;5.38;44.60
56176;BME280;63065;51.082;17.016;2023-03-08T05:17:35;98744.97;;;5.67;45.34
56176;BME280;63065;51.082;17.016;2023-03-08T05:20:00;98753.61;;;5.37;45.22
56176;BME280;63065;51.082;17.016;2023-03-08T05:22:26;98760.64;;;5.93;45.24
56176;BME280;63065;51.082;17.016;2023-03-08T05:24:51;98762.76;;;5.52;44.90
56176;BME280;63065;51.082;17.016;2023-03-08T05:27:17;98761.73;;;5.60;45.06
56176;BME280;63065;51.082;17.016;2023-03-08T05:29:42;98760.19;;;5.59;44.41
56176;BME280;63065;51.082;17.016;2023-03-08T05:32:10;98766.57;;;5.88;44.77
56176;BME280;63065;51.082;17.016;2023-03-08T05:34:33;98767.77;;;5.68;44.59
56176;BME280;63065;51.082;17.016;2023-03-08T05:36:58;98771.54;;;6.06;44.58
56176;BME280;63065;51.082;17.016;2023-03-08T05:39:24;98778.16;;;5.67;44.71
56176;BME280;63065;51.082;17.016;2023-03-08T05:41:49;98776.94;;;5.78;44.60
56176;BME280;63065;51.082;17.016;2023-03-08T05:44:14;98779.10;;;5.74;44.70
56176;BME280;63065;51.082;17.016;2023-03-08T05:46:39;98783.00;;;5.75;44.63
56176;BME280;63065;51.082;17.016;2023-03-08T05:49:05;98787.47;;;5.92;44.07
56176;BME280;63065;51.082;17.016;2023-03-08T05:51:30;98778.25;;;5.45;45.13
56176;BME280;63065;51.082;17.016;2023-03-08T05:53:55;98777.77;;;5.63;44.57
56176;BME280;63065;51.082;17.016;2023-03-08T05:56:22;98779.56;;;5.99;44.56
56176;BME280;63065;51.082;17.016;2023-03-08T05:58:46;98781.92;;;5.84;44.33
56176;BME280;63065;51.082;17.016;2023-03-08T06:01:13;98776.15;;;5.80;44.70
56176;BME280;63065;51.082;17.016;2023-03-08T06:03:37;98784.92;;;6.00;44.51
56176;BME280;63065;51.082;17.016;2023-03-08T06:06:03;98788.46;;;5.78;44.58
56176;BME280;63065;51.082;17.016;2023-03-08T06:08:27;98791.36;;;5.48;44.46
56176;BME280;63065;51.082;17.016;2023-03-08T06:10:53;98795.07;;;6.00;44.16
56176;BME280;63065;51.082;17.016;2023-03-08T06:13:18;98795.31;;;6.08;44.17
56176;BME280;63065;51.082;17.016;2023-03-08T06:15:44;98788.87;;;6.14;44.11
56176;BME280;63065;51.082;17.016;2023-03-08T06:18:10;98789.05;;;6.18;44.08
56176;BME280;63065;51.082;17.016;2023-03-08T06:20:35;98799.72;;;6.13;43.78
56176;BME280;63065;51.082;17.016;2023-03-08T06:23:00;98802.65;;;6.19;44.39
56176;BME280;63065;51.082;17.016;2023-03-08T06:25:26;98809.90;;;6.06;43.72
56176;BME280;63065;51.082;17.016;2023-03-08T06:27:52;98809.91;;;5.99;44.56
56176;BME280;63065;51.082;17.016;2023-03-08T06:30:17;98806.85;;;6.00;44.29
56176;BME280;63065;51.082;17.016;2023-03-08T06:32:43;98807.82;;;6.11;43.70
56176;BME280;63065;51.082;17.016;2023-03-08T06:35:08;98810.20;;;5.97;44.04
56176;BME280;63065;51.082;17.016;2023-03-08T06:37:35;98817.35;;;6.05;43.63
56176;BME280;63065;51.082;17.016;2023-03-08T06:40:00;98815.62;;;5.97;44.02
56176;BME280;63065;51.082;17.016;2023-03-08T06:42:26;98819.13;;;6.12;43.90
56176;BME280;63065;51.082;17.016;2023-03-08T06:44:51;98822.38;;;6.21;43.67
56176;BME280;63065;51.082;17.016;2023-03-08T06:47:16;98819.17;;;6.44;44.19
56176;BME280;63065;51.082;17.016;2023-03-08T06:49:42;98830.57;;;6.42;44.20
56176;BME280;63065;51.082;17.016;2023-03-08T06:52:07;98839.37;;;6.52;43.69
56176;BME280;63065;51.082;17.016;2023-03-08T06:54:32;98831.73;;;6.56;43.97
56176;BME280;63065;51.082;17.016;2023-03-08T06:56:58;98827.89;;;6.59;44.19
56176;BME280;63065;51.082;17.016;2023-03-08T06:59:23;98839.51;;;6.57;42.89
56176;BME280;63065;51.082;17.016;2023-03-08T07:01:48;98839.06;;;6.25;43.64
56176;BME280;63065;51.082;17.016;2023-03-08T07:04:14;98828.68;;;6.38;43.29
56176;BME280;63065;51.082;17.016;2023-03-08T07:06:39;98830.74;;;6.15;43.19
56176;BME280;63065;51.082;17.016;2023-03-08T07:09:05;98821.92;;;6.11;43.80
56176;BME280;63065;51.082;17.016;2023-03-08T07:11:30;98838.87;;;6.25;43.14
56176;BME280;63065;51.082;17.016;2023-03-08T07:13:56;98842.75;;;6.44;43.85
56176;BME280;63065;51.082;17.016;2023-03-08T07:16:21;98838.31;;;6.59;43.66
56176;BME280;63065;51.082;17.016;2023-03-08T07:18:47;98838.43;;;6.60;43.34
56176;BME280;63065;51.082;17.016;2023-03-08T07:21:13;98838.10;;;6.70;42.47
56176;BME280;63065;51.082;17.016;2023-03-08T07:23:38;98841.30;;;6.76;43.11
56176;BME280;63065;51.082;17.016;2023-03-08T07:26:05;98847.39;;;6.71;43.64
56176;BME280;63065;51.082;17.016;2023-03-08T07:28:29;98844.93;;;6.94;43.14
56176;BME280;63065;51.082;17.016;2023-03-08T07:30:54;98843.02;;;6.99;43.38
56176;BME280;63065;51.082;17.016;2023-03-08T07:33:20;98851.06;;;6.87;43.28
56176;BME280;63065;51.082;17.016;2023-03-08T07:35:45;98861.45;;;6.96;42.88
56176;BME280;63065;51.082;17.016;2023-03-08T07:38:11;98861.13;;;6.72;44.65
56176;BME280;63065;51.082;17.016;2023-03-08T07:40:36;98862.92;;;6.67;43.67
56176;BME280;63065;51.082;17.016;2023-03-08T07:43:01;98867.16;;;6.45;43.95
56176;BME280;63065;51.082;17.016;2023-03-08T07:45:27;98862.62;;;6.96;43.62
56176;BME280;63065;51.082;17.016;2023-03-08T07:47:52;98860.94;;;6.91;44.10
56176;BME280;63065;51.082;17.016;2023-03-08T07:50:18;98864.06;;;6.81;42.95
56176;BME280;63065;51.082;17.016;2023-03-08T07:52:43;98859.17;;;7.09;43.73
56176;BME280;63065;51.082;17.016;2023-03-08T07:55:09;98855.44;;;7.01;40.88
56176;BME280;63065;51.082;17.016;2023-03-08T07:57:34;98859.19;;;7.11;43.06
56176;BME280;63065;51.082;17.016;2023-03-08T07:59:59;98861.82;;;7.29;43.31
56176;BME280;63065;51.082;17.016;2023-03-08T08:02:25;98861.34;;;7.05;42.36
56176;BME280;63065;51.082;17.016;2023-03-08T08:04:50;98857.79;;;7.40;42.78
56176;BME280;63065;51.082;17.016;2023-03-08T08:07:16;98859.18;;;7.07;43.55
56176;BME280;63065;51.082;17.016;2023-03-08T08:09:41;98856.48;;;7.26;43.78
56176;BME280;63065;51.082;17.016;2023-03-08T08:12:06;98860.61;;;7.53;43.50
56176;BME280;63065;51.082;17.016;2023-03-08T08:14:32;98857.17;;;7.59;42.67
56176;BME280;63065;51.082;17.016;2023-03-08T08:16:57;98863.16;;;7.62;43.46
56176;BME280;63065;51.082;17.016;2023-03-08T08:19:23;98870.44;;;7.32;42.43
56176;BME280;63065;51.082;17.016;2023-03-08T08:21:48;98871.55;;;7.53;43.42
56176;BME280;63065;51.082;17.016;2023-03-08T08:24:13;98875.36;;;7.54;43.07
56176;BME280;63065;51.082;17.016;2023-03-08T08:26:38;98872.84;;;7.47;43.79
56176;BME280;63065;51.082;17.016;2023-03-08T08:29:04;98872.65;;;7.72;43.30
56176;BME280;63065;51.082;17.016;2023-03-08T08:31:29;98876.13;;;7.33;43.96
56176;BME280;63065;51.082;17.016;2023-03-08T08:33:54;98878.89;;;7.43;43.70
56176;BME280;63065;51.082;17.016;2023-03-08T08:36:20;98873.84;;;7.82;43.69
56176;BME280;63065;51.082;17.016;2023-03-08T08:38:46;98869.96;;;7.19;41.84
56176;BME280;63065;51.082;17.016;2023-03-08T08:41:12;98867.83;;;7.55;43.47
56176;BME280;63065;51.082;17.016;2023-03-08T08:43:36;98865.97;;;7.72;43.68
56176;BME280;63065;51.082;17.016;2023-03-08T08:46:03;98861.03;;;7.54;43.74
56176;BME280;63065;51.082;17.016;2023-03-08T08:48:27;98852.49;;;7.92;43.45
56176;BME280;63065;51.082;17.016;2023-03-08T08:50:53;98847.18;;;7.63;43.19
56176;BME280;63065;51.082;17.016;2023-03-08T08:53:18;98845.46;;;7.87;43.50
56176;BME280;63065;51.082;17.016;2023-03-08T08:55:44;98845.73;;;7.92;43.52
56176;BME280;63065;51.082;17.016;2023-03-08T08:58:10;98847.17;;;8.03;43.61
56176;BME280;63065;51.082;17.016;2023-03-08T09:00:35;98855.30;;;8.19;42.53
56176;BME280;63065;51.082;17.016;2023-03-08T09:03:00;98857.36;;;8.02;42.00
56176;BME280;63065;51.082;17.016;2023-03-08T09:05:25;98860.33;;;8.18;43.46
56176;BME280;63065;51.082;17.016;2023-03-08T09:07:52;98858.17;;;8.07;42.81
56176;BME280;63065;51.082;17.016;2023-03-08T09:10:17;98855.16;;;8.06;40.83
56176;BME280;63065;51.082;17.016;2023-03-08T09:12:41;98853.15;;;7.96;42.01
56176;BME280;63065;51.082;17.016;2023-03-08T09:15:08;98851.55;;;8.07;41.14
56176;BME280;63065;51.082;17.016;2023-03-08T09:17:32;98841.13;;;8.11;41.70
56176;BME280;63065;51.082;17.016;2023-03-08T09:19:58;98840.67;;;8.26;42.09
56176;BME280;63065;51.082;17.016;2023-03-08T09:22:23;98841.61;;;8.45;42.09
56176;BME280;63065;51.082;17.016;2023-03-08T09:24:49;98838.89;;;8.27;39.70
56176;BME280;63065;51.082;17.016;2023-03-08T09:27:14;98831.05;;;8.14;41.83
56176;BME280;63065;51.082;17.016;2023-03-08T09:29:40;98824.59;;;8.24;41.69
56176;BME280;63065;51.082;17.016;2023-03-08T09:32:05;98832.74;;;8.27;41.67
56176;BME280;63065;51.082;17.016;2023-03-08T09:34:31;98838.83;;;8.24;41.86
56176;BME280;63065;51.082;17.016;2023-03-08T09:36:57;98836.02;;;8.64;41.73
56176;BME280;63065;51.082;17.016;2023-03-08T09:39:22;98839.34;;;8.88;40.15
56176;BME280;63065;51.082;17.016;2023-03-08T09:41:50;98833.08;;;9.02;39.05
56176;BME280;63065;51.082;17.016;2023-03-08T09:44:17;98832.75;;;8.68;39.74
56176;BME280;63065;51.082;17.016;2023-03-08T09:46:41;98824.51;;;8.56;41.68
56176;BME280;63065;51.082;17.016;2023-03-08T09:49:04;98823.89;;;8.46;39.26
56176;BME280;63065;51.082;17.016;2023-03-08T09:51:33;98821.07;;;8.34;40.96
56176;BME280;63065;51.082;17.016;2023-03-08T09:53:59;98821.24;;;8.12;41.87
56176;BME280;63065;51.082;17.016;2023-03-08T09:56:27;98811.23;;;8.70;38.46
56176;BME280;63065;51.082;17.016;2023-03-08T09:58:49;98803.77;;;8.90;41.44
56176;BME280;63065;51.082;17.016;2023-03-08T10:01:19;98803.69;;;8.81;40.97
56176;BME280;63065;51.082;17.016;2023-03-08T10:03:51;98799.37;;;9.24;41.35
56176;BME280;63065;51.082;17.016;2023-03-08T10:06:06;98798.89;;;9.11;38.01
56176;BME280;63065;51.082;17.016;2023-03-08T10:08:31;98794.35;;;8.78;37.33
56176;BME280;63065;51.082;17.016;2023-03-08T10:10:57;98790.83;;;8.91;40.39
56176;BME280;63065;51.082;17.016;2023-03-08T10:13:28;98790.44;;;8.97;40.59
56176;BME280;63065;51.082;17.016;2023-03-08T10:15:48;98793.25;;;8.68;40.55
56176;BME280;63065;51.082;17.016;2023-03-08T10:18:15;98796.55;;;8.79;40.58
56176;BME280;63065;51.082;17.016;2023-03-08T10:20:36;98791.94;;;8.97;40.89
56176;BME280;63065;51.082;17.016;2023-03-08T10:23:08;98793.51;;;8.74;40.98
56176;BME280;63065;51.082;17.016;2023-03-08T10:25:27;98795.09;;;8.92;40.87
56176;BME280;63065;51.082;17.016;2023-03-08T10:27:53;98789.73;;;8.89;41.75
56176;BME280;63065;51.082;17.016;2023-03-08T10:30:20;98786.51;;;8.98;41.90
56176;BME280;63065;51.082;17.016;2023-03-08T10:32:44;98781.57;;;8.91;41.43
56176;BME280;63065;51.082;17.016;2023-03-08T10:35:08;98776.75;;;8.95;41.22
56176;BME280;63065;51.082;17.016;2023-03-08T10:37:33;98771.91;;;8.94;40.78
56176;BME280;63065;51.082;17.016;2023-03-08T10:40:00;98770.63;;;8.60;41.25
56176;BME280;63065;51.082;17.016;2023-03-08T10:42:26;98762.44;;;8.71;41.42
56176;BME280;63065;51.082;17.016;2023-03-08T10:44:56;98763.16;;;9.36;41.25
56176;BME280;63065;51.082;17.016;2023-03-08T10:47:19;98761.68;;;9.30;41.39
56176;BME280;63065;51.082;17.016;2023-03-08T10:49:41;98758.96;;;9.11;39.53
56176;BME280;63065;51.082;17.016;2023-03-08T10:52:13;98763.36;;;9.17;41.28
56176;BME280;63065;51.082;17.016;2023-03-08T10:54:32;98762.07;;;9.08;40.76
56176;BME280;63065;51.082;17.016;2023-03-08T10:56:59;98757.63;;;9.42;40.82
56176;BME280;63065;51.082;17.016;2023-03-08T10:59:26;98758.07;;;9.36;41.13
56176;BME280;63065;51.082;17.016;2023-03-08T11:01:50;98754.95;;;9.00;40.58
56176;BME280;63065;51.082;17.016;2023-03-08T11:04:17;98752.22;;;9.34;41.14
56176;BME280;63065;51.082;17.016;2023-03-08T11:06:41;98745.03;;;9.42;40.47
56176;BME280;63065;51.082;17.016;2023-03-08T11:11:40;98738.06;;;8.93;40.25
56176;BME280;63065;51.082;17.016;2023-03-08T11:13:57;98736.85;;;8.92;40.40
56176;BME280;63065;51.082;17.016;2023-03-08T11:16:39;98728.51;;;8.82;41.00
56176;BME280;63065;51.082;17.016;2023-03-08T11:18:56;98719.32;;;8.70;41.28
56176;BME280;63065;51.082;17.016;2023-03-08T11:21:19;98713.72;;;8.91;40.84
56176;BME280;63065;51.082;17.016;2023-03-08T11:23:45;98711.81;;;8.93;41.15
56176;BME280;63065;51.082;17.016;2023-03-08T11:26:15;98706.61;;;9.06;40.87
56176;BME280;63065;51.082;17.016;2023-03-08T11:28:40;98698.34;;;8.85;40.79
56176;BME280;63065;51.082;17.016;2023-03-08T11:31:04;98693.13;;;8.92;41.27
56176;BME280;63065;51.082;17.016;2023-03-08T11:33:33;98690.32;;;8.91;41.57
56176;BME280;63065;51.082;17.016;2023-03-08T11:35:52;98686.05;;;8.71;41.58
56176;BME280;63065;51.082;17.016;2023-03-08T11:38:16;98682.88;;;9.08;41.40
56176;BME280;63065;51.082;17.016;2023-03-08T11:40:46;98680.54;;;8.55;41.52
56176;BME280;63065;51.082;17.016;2023-03-08T11:43:14;98681.45;;;8.75;41.60
56176;BME280;63065;51.082;17.016;2023-03-08T11:45:32;98678.67;;;8.95;41.45
56176;BME280;63065;51.082;17.016;2023-03-08T11:50:21;98676.66;;;9.11;41.13
56176;BME280;63065;51.082;17.016;2023-03-08T11:52:50;98671.45;;;9.34;40.85
56176;BME280;63065;51.082;17.016;2023-03-08T11:55:27;98667.44;;;9.29;40.44
56176;BME280;63065;51.082;17.016;2023-03-08T11:57:39;98664.05;;;9.56;39.93
56176;BME280;63065;51.082;17.016;2023-03-08T12:00:03;98660.99;;;9.86;40.29
56176;BME280;63065;51.082;17.016;2023-03-08T12:02:28;98656.16;;;9.75;39.70
56176;BME280;63065;51.082;17.016;2023-03-08T12:04:57;98654.39;;;10.29;39.00
56176;BME280;63065;51.082;17.016;2023-03-08T12:07:20;98650.13;;;9.81;39.73
56176;BME280;63065;51.082;17.016;2023-03-08T12:09:51;98644.15;;;9.20;40.05
56176;BME280;63065;51.082;17.016;2023-03-08T12:12:13;98639.59;;;8.76;40.02
56176;BME280;63065;51.082;17.016;2023-03-08T12:14:43;98638.79;;;9.41;40.65
56176;BME280;63065;51.082;17.016;2023-03-08T12:17:05;98636.48;;;9.17;39.74
56176;BME280;63065;51.082;17.016;2023-03-08T12:19:29;98633.40;;;8.47;40.27
56176;BME280;63065;51.082;17.016;2023-03-08T12:21:54;98629.07;;;9.04;40.19
56176;BME280;63065;51.082;17.016;2023-03-08T12:24:25;98624.57;;;9.07;40.10
56176;BME280;63065;51.082;17.016;2023-03-08T12:26:42;98619.74;;;9.10;40.53
56176;BME280;63065;51.082;17.016;2023-03-08T12:29:10;98615.43;;;8.93;40.58
56176;BME280;63065;51.082;17.016;2023-03-08T12:31:36;98612.21;;;9.15;40.61
56176;BME280;63065;51.082;17.016;2023-03-08T12:33:58;98612.31;;;9.30;41.15
56176;BME280;63065;51.082;17.016;2023-03-08T12:36:22;98608.35;;;9.39;41.11
56176;BME280;63065;51.082;17.016;2023-03-08T12:38:48;98601.16;;;9.86;40.60
56176;BME280;63065;51.082;17.016;2023-03-08T12:41:20;98594.50;;;9.12;40.43
56176;BME280;63065;51.082;17.016;2023-03-08T12:43:37;98589.61;;;9.22;40.46
56176;BME280;63065;51.082;17.016;2023-03-08T12:46:06;98588.64;;;9.43;40.52
56176;BME280;63065;51.082;17.016;2023-03-08T12:48:29;98583.34;;;9.35;40.71
56176;BME280;63065;51.082;17.016;2023-03-08T12:50:58;98579.72;;;9.49;40.87
56176;BME280;63065;51.082;17.016;2023-03-08T12:53:23;98578.22;;;9.13;39.90
56176;BME280;63065;51.082;17.016;2023-03-08T12:55:44;98572.15;;;9.36;41.10